Laramie Regional Airport
KLAR : now visible

Airfield :











YOU CAN JOIN US ON...

 
LOGIN :

Register | Disclaimer

   EN    FR    IT 

 









Legend :    VFR   Marginal VFR   IFR   Intensive IFR   Very Intensive IFR
Visi :
Ceiling :
>= 8 km
>= 3000ft
5 to 8 km
1000 to 3000 ft
1500m to 5 km
500 to 1000 ft
800 to 1500m
200 to 500 ft
< 800m
< 200 ft
Symbols :   Thunderstorms  Fog  Heavy snow  Heavy precipitations  Wind > 20 kt







- Airport Elevation : 7284 ft
- IATA code : LAR


KLAR - Laramie Regional

CURRENT METAR :
  • 260453Z AUTO 29018G25KT 10SM CLR 21/M01 A3008 RMK AO2 PK WND 29026/0438 SLP050 T02061011

EXPIRED METARs :
  • 260353Z AUTO 29015G23KT 10SM CLR 21/M02 A3008 RMK AO2 SLP050 T02111017
  • 260253Z AUTO 30013G21KT 10SM CLR 22/M02 A3006 RMK AO2 SLP050 T02171022 53009

TAF KLAR
Valid from the 26 at 02:00 until the 27 at 00:00 UTC


260159Z 2602/2624 29015G25KT P6SM SKC
FM260500 31010KT P6SM SKC
FM261500 32015G25KT P6SM SKC
No reported NOTAMs for that airfield.



MET'MAP, your aeronautical weather chart ! - Copyright ORBIFLY December 2007 - Disclaimer

ORBIFLY MET'MAP TEAM :

Programming & Development : Alexandra Zaïnal
Concept & Development : Baudouin d'Aumeries
Co-Development & Prog : Marc-Olivier Méhu
Technical & hardware support : Manuel Goepfert

Contact : metmap@orbifly.com




SOURCES & CREDITS :

   NOAA       Earth
Advisory